Terminal Aerodrome Forecast
Issued by NWS Blacksburg, VA

Home | Current Version | Previous Version | Text Only | Print | Product List | Glossary On
Versions: 1 2 3 4 5 6 7 8 9 10 11 12 13 14 15 16 17 18 19 20 21 22 23 24 25 26 27 28 29 30 31 32 33 34 35 36 37 38 39 40 41 42 43 44 45 46 47 48 49 50
529
FTUS41 KRNK 181120
TAFROA
TAF
KROA 181120Z 1812/1912 28008KT P6SM BKN045
      TEMPO 1812/1813 OVC025
     FM181330 29010G25KT P6SM SCT200
     FM182100 31009KT P6SM FEW250
     FM190200 29005KT P6SM FEW250=

USA.gov is the U.S. government's official web portal to all federal, state and local government web resources and services.